sensor_id;sensor_type;location;lat;lon;timestamp;P1;durP1;ratioP1;P2;durP2;ratioP2
23449;SDS011;11897;45.438;12.128;2022-10-12T00:00:50;2.57;;;1.50;;
23449;SDS011;11897;45.438;12.128;2022-10-12T00:03:16;2.67;;;1.83;;
23449;SDS011;11897;45.438;12.128;2022-10-12T00:05:43;3.30;;;2.03;;
23449;SDS011;11897;45.438;12.128;2022-10-12T00:08:11;3.20;;;1.70;;
23449;SDS011;11897;45.438;12.128;2022-10-12T00:10:38;3.00;;;1.90;;
23449;SDS011;11897;45.438;12.128;2022-10-12T00:13:05;1.90;;;1.70;;
23449;SDS011;11897;45.438;12.128;2022-10-12T00:15:34;4.90;;;1.50;;
23449;SDS011;11897;45.438;12.128;2022-10-12T00:18:01;4.70;;;1.40;;
23449;SDS011;11897;45.438;12.128;2022-10-12T00:20:28;2.50;;;1.47;;
23449;SDS011;11897;45.438;12.128;2022-10-12T00:22:54;5.07;;;2.27;;
23449;SDS011;11897;45.438;12.128;2022-10-12T00:25:24;3.80;;;1.70;;
23449;SDS011;11897;45.438;12.128;2022-10-12T00:27:50;2.70;;;1.63;;
23449;SDS011;11897;45.438;12.128;2022-10-12T00:30:17;3.30;;;1.60;;
23449;SDS011;11897;45.438;12.128;2022-10-12T00:32:44;4.50;;;1.63;;
23449;SDS011;11897;45.438;12.128;2022-10-12T00:35:11;2.07;;;1.53;;
23449;SDS011;11897;45.438;12.128;2022-10-12T00:37:39;2.47;;;2.00;;
23449;SDS011;11897;45.438;12.128;2022-10-12T00:40:07;2.00;;;1.40;;
23449;SDS011;11897;45.438;12.128;2022-10-12T00:42:36;2.77;;;1.60;;
23449;SDS011;11897;45.438;12.128;2022-10-12T00:45:03;2.00;;;1.43;;
23449;SDS011;11897;45.438;12.128;2022-10-12T00:47:31;2.43;;;1.40;;
23449;SDS011;11897;45.438;12.128;2022-10-12T00:49:59;2.07;;;1.20;;
23449;SDS011;11897;45.438;12.128;2022-10-12T00:52:28;6.43;;;2.23;;
23449;SDS011;11897;45.438;12.128;2022-10-12T00:54:57;3.17;;;1.57;;
23449;SDS011;11897;45.438;12.128;2022-10-12T00:57:24;2.20;;;1.37;;
23449;SDS011;11897;45.438;12.128;2022-10-12T00:59:53;3.03;;;1.60;;
23449;SDS011;11897;45.438;12.128;2022-10-12T01:02:21;1.43;;;1.20;;
23449;SDS011;11897;45.438;12.128;2022-10-12T01:04:49;3.57;;;1.43;;
23449;SDS011;11897;45.438;12.128;2022-10-12T01:07:16;1.87;;;1.40;;
23449;SDS011;11897;45.438;12.128;2022-10-12T01:09:43;2.57;;;1.47;;
23449;SDS011;11897;45.438;12.128;2022-10-12T01:12:10;2.90;;;1.50;;
23449;SDS011;11897;45.438;12.128;2022-10-12T01:14:36;2.50;;;1.33;;
23449;SDS011;11897;45.438;12.128;2022-10-12T01:17:07;2.70;;;1.33;;
23449;SDS011;11897;45.438;12.128;2022-10-12T01:19:46;2.73;;;1.40;;
23449;SDS011;11897;45.438;12.128;2022-10-12T01:22:16;4.93;;;1.57;;
23449;SDS011;11897;45.438;12.128;2022-10-12T01:24:48;3.17;;;1.50;;
23449;SDS011;11897;45.438;12.128;2022-10-12T01:27:26;3.27;;;1.27;;
23449;SDS011;11897;45.438;12.128;2022-10-12T01:30:07;5.33;;;1.60;;
23449;SDS011;11897;45.438;12.128;2022-10-12T01:32:37;2.47;;;1.23;;
23449;SDS011;11897;45.438;12.128;2022-10-12T01:35:07;4.40;;;1.20;;
23449;SDS011;11897;45.438;12.128;2022-10-12T01:37:36;2.27;;;1.07;;
23449;SDS011;11897;45.438;12.128;2022-10-12T01:40:06;1.97;;;1.40;;
23449;SDS011;11897;45.438;12.128;2022-10-12T01:42:36;5.53;;;2.03;;
23449;SDS011;11897;45.438;12.128;2022-10-12T01:45:03;2.20;;;1.43;;
23449;SDS011;11897;45.438;12.128;2022-10-12T01:47:32;1.43;;;0.90;;
23449;SDS011;11897;45.438;12.128;2022-10-12T01:49:59;1.33;;;1.03;;
23449;SDS011;11897;45.438;12.128;2022-10-12T01:52:26;1.83;;;1.00;;
23449;SDS011;11897;45.438;12.128;2022-10-12T01:55:02;2.30;;;1.30;;
23449;SDS011;11897;45.438;12.128;2022-10-12T01:57:33;2.30;;;1.30;;
23449;SDS011;11897;45.438;12.128;2022-10-12T02:00:03;2.27;;;1.43;;
23449;SDS011;11897;45.438;12.128;2022-10-12T02:02:35;2.97;;;1.00;;
23449;SDS011;11897;45.438;12.128;2022-10-12T02:05:05;1.93;;;1.20;;
23449;SDS011;11897;45.438;12.128;2022-10-12T02:07:38;1.00;;;0.80;;
23449;SDS011;11897;45.438;12.128;2022-10-12T02:10:08;3.63;;;1.50;;
23449;SDS011;11897;45.438;12.128;2022-10-12T02:12:37;3.30;;;1.33;;
23449;SDS011;11897;45.438;12.128;2022-10-12T02:15:06;2.80;;;1.40;;
23449;SDS011;11897;45.438;12.128;2022-10-12T02:17:35;1.30;;;1.13;;
23449;SDS011;11897;45.438;12.128;2022-10-12T02:20:02;2.90;;;1.67;;
23449;SDS011;11897;45.438;12.128;2022-10-12T02:22:30;4.20;;;1.47;;
23449;SDS011;11897;45.438;12.128;2022-10-12T02:24:58;2.57;;;1.63;;
23449;SDS011;11897;45.438;12.128;2022-10-12T02:27:26;2.80;;;1.53;;
23449;SDS011;11897;45.438;12.128;2022-10-12T02:29:53;1.93;;;1.30;;
23449;SDS011;11897;45.438;12.128;2022-10-12T02:32:21;2.17;;;1.43;;
23449;SDS011;11897;45.438;12.128;2022-10-12T02:34:52;3.10;;;1.73;;
23449;SDS011;11897;45.438;12.128;2022-10-12T02:37:25;2.90;;;1.40;;
23449;SDS011;11897;45.438;12.128;2022-10-12T02:39:54;1.90;;;1.17;;
23449;SDS011;11897;45.438;12.128;2022-10-12T02:42:23;3.63;;;1.23;;
23449;SDS011;11897;45.438;12.128;2022-10-12T02:44:52;3.90;;;1.77;;
23449;SDS011;11897;45.438;12.128;2022-10-12T02:47:20;2.03;;;1.40;;
23449;SDS011;11897;45.438;12.128;2022-10-12T02:49:48;1.77;;;1.27;;
23449;SDS011;11897;45.438;12.128;2022-10-12T02:52:17;1.43;;;1.30;;
23449;SDS011;11897;45.438;12.128;2022-10-12T02:54:44;4.10;;;1.77;;
23449;SDS011;11897;45.438;12.128;2022-10-12T02:57:11;2.70;;;1.40;;
23449;SDS011;11897;45.438;12.128;2022-10-12T02:59:37;1.77;;;1.50;;
23449;SDS011;11897;45.438;12.128;2022-10-12T03:02:04;3.13;;;1.43;;
23449;SDS011;11897;45.438;12.128;2022-10-12T03:04:31;2.23;;;1.10;;
23449;SDS011;11897;45.438;12.128;2022-10-12T03:06:58;1.37;;;1.10;;
23449;SDS011;11897;45.438;12.128;2022-10-12T03:09:26;1.93;;;1.00;;
23449;SDS011;11897;45.438;12.128;2022-10-12T03:11:53;1.40;;;1.03;;
23449;SDS011;11897;45.438;12.128;2022-10-12T03:14:20;1.80;;;1.03;;
23449;SDS011;11897;45.438;12.128;2022-10-12T03:16:47;2.40;;;1.80;;
23449;SDS011;11897;45.438;12.128;2022-10-12T03:19:14;2.23;;;1.83;;
23449;SDS011;11897;45.438;12.128;2022-10-12T03:21:41;1.23;;;1.03;;
23449;SDS011;11897;45.438;12.128;2022-10-12T03:24:08;2.80;;;1.33;;
23449;SDS011;11897;45.438;12.128;2022-10-12T03:26:37;2.60;;;1.30;;
23449;SDS011;11897;45.438;12.128;2022-10-12T03:29:04;3.03;;;1.40;;
23449;SDS011;11897;45.438;12.128;2022-10-12T03:31:32;1.90;;;1.30;;
23449;SDS011;11897;45.438;12.128;2022-10-12T03:33:59;2.03;;;1.20;;
23449;SDS011;11897;45.438;12.128;2022-10-12T03:36:26;3.73;;;1.00;;
23449;SDS011;11897;45.438;12.128;2022-10-12T03:38:53;2.80;;;1.10;;
23449;SDS011;11897;45.438;12.128;2022-10-12T03:41:19;2.70;;;1.37;;
23449;SDS011;11897;45.438;12.128;2022-10-12T03:43:47;3.00;;;0.97;;
23449;SDS011;11897;45.438;12.128;2022-10-12T03:46:14;2.87;;;1.43;;
23449;SDS011;11897;45.438;12.128;2022-10-12T03:48:41;1.40;;;0.77;;
23449;SDS011;11897;45.438;12.128;2022-10-12T03:51:07;2.23;;;1.57;;
23449;SDS011;11897;45.438;12.128;2022-10-12T03:53:34;1.70;;;1.00;;
23449;SDS011;11897;45.438;12.128;2022-10-12T03:56:01;2.50;;;0.90;;
23449;SDS011;11897;45.438;12.128;2022-10-12T03:58:27;2.20;;;1.23;;
23449;SDS011;11897;45.438;12.128;2022-10-12T04:00:55;2.10;;;0.90;;
23449;SDS011;11897;45.438;12.128;2022-10-12T04:03:22;1.30;;;1.03;;
23449;SDS011;11897;45.438;12.128;2022-10-12T04:05:52;1.57;;;1.03;;
23449;SDS011;11897;45.438;12.128;2022-10-12T04:08:19;1.53;;;1.13;;
23449;SDS011;11897;45.438;12.128;2022-10-12T04:10:47;1.53;;;0.93;;
23449;SDS011;11897;45.438;12.128;2022-10-12T04:13:14;1.53;;;0.93;;
23449;SDS011;11897;45.438;12.128;2022-10-12T04:15:41;1.83;;;1.27;;
23449;SDS011;11897;45.438;12.128;2022-10-12T04:18:10;1.20;;;0.70;;
23449;SDS011;11897;45.438;12.128;2022-10-12T04:20:36;1.50;;;1.10;;
23449;SDS011;11897;45.438;12.128;2022-10-12T04:23:03;1.13;;;0.77;;
23449;SDS011;11897;45.438;12.128;2022-10-12T04:25:30;3.63;;;1.13;;
23449;SDS011;11897;45.438;12.128;2022-10-12T04:27:56;3.57;;;1.30;;
23449;SDS011;11897;45.438;12.128;2022-10-12T04:30:23;2.00;;;0.93;;
23449;SDS011;11897;45.438;12.128;2022-10-12T04:32:50;1.70;;;1.30;;
23449;SDS011;11897;45.438;12.128;2022-10-12T04:35:18;1.30;;;1.07;;
23449;SDS011;11897;45.438;12.128;2022-10-12T04:37:45;2.17;;;1.40;;
23449;SDS011;11897;45.438;12.128;2022-10-12T04:40:12;1.33;;;0.97;;
23449;SDS011;11897;45.438;12.128;2022-10-12T04:42:38;2.03;;;1.43;;
23449;SDS011;11897;45.438;12.128;2022-10-12T04:45:05;1.03;;;0.90;;
23449;SDS011;11897;45.438;12.128;2022-10-12T04:47:33;1.73;;;1.17;;
23449;SDS011;11897;45.438;12.128;2022-10-12T04:50:01;1.37;;;1.03;;
23449;SDS011;11897;45.438;12.128;2022-10-12T04:52:29;3.70;;;1.50;;
23449;SDS011;11897;45.438;12.128;2022-10-12T04:54:56;1.93;;;1.13;;
23449;SDS011;11897;45.438;12.128;2022-10-12T04:57:23;1.90;;;1.00;;
23449;SDS011;11897;45.438;12.128;2022-10-12T04:59:50;1.33;;;1.00;;
23449;SDS011;11897;45.438;12.128;2022-10-12T05:02:16;1.53;;;1.00;;
23449;SDS011;11897;45.438;12.128;2022-10-12T05:04:43;1.50;;;0.73;;
23449;SDS011;11897;45.438;12.128;2022-10-12T05:07:10;1.97;;;0.93;;
23449;SDS011;11897;45.438;12.128;2022-10-12T05:09:38;1.03;;;0.73;;
23449;SDS011;11897;45.438;12.128;2022-10-12T05:12:05;1.37;;;0.93;;
23449;SDS011;11897;45.438;12.128;2022-10-12T05:14:32;2.13;;;0.80;;
23449;SDS011;11897;45.438;12.128;2022-10-12T05:16:58;0.97;;;0.87;;
23449;SDS011;11897;45.438;12.128;2022-10-12T05:19:25;3.63;;;1.60;;
23449;SDS011;11897;45.438;12.128;2022-10-12T05:21:53;1.63;;;1.00;;
23449;SDS011;11897;45.438;12.128;2022-10-12T05:24:21;1.73;;;0.93;;
23449;SDS011;11897;45.438;12.128;2022-10-12T05:26:50;1.30;;;1.00;;
23449;SDS011;11897;45.438;12.128;2022-10-12T05:29:17;2.17;;;1.47;;
23449;SDS011;11897;45.438;12.128;2022-10-12T05:31:44;2.87;;;1.43;;
23449;SDS011;11897;45.438;12.128;2022-10-12T05:34:10;2.30;;;1.40;;
23449;SDS011;11897;45.438;12.128;2022-10-12T05:36:37;3.80;;;1.33;;
23449;SDS011;11897;45.438;12.128;2022-10-12T05:39:03;4.63;;;1.37;;
23449;SDS011;11897;45.438;12.128;2022-10-12T05:41:30;1.90;;;0.93;;
23449;SDS011;11897;45.438;12.128;2022-10-12T05:43:58;1.77;;;0.87;;
23449;SDS011;11897;45.438;12.128;2022-10-12T05:46:25;1.60;;;1.20;;
23449;SDS011;11897;45.438;12.128;2022-10-12T05:48:51;2.13;;;1.10;;
23449;SDS011;11897;45.438;12.128;2022-10-12T05:51:18;1.00;;;0.90;;
23449;SDS011;11897;45.438;12.128;2022-10-12T05:53:45;2.27;;;1.00;;
23449;SDS011;11897;45.438;12.128;2022-10-12T05:56:11;3.63;;;1.40;;
23449;SDS011;11897;45.438;12.128;2022-10-12T05:58:38;1.73;;;1.13;;
23449;SDS011;11897;45.438;12.128;2022-10-12T06:01:06;2.17;;;1.43;;
23449;SDS011;11897;45.438;12.128;2022-10-12T06:03:33;1.30;;;0.90;;
23449;SDS011;11897;45.438;12.128;2022-10-12T06:06:00;1.63;;;1.10;;
23449;SDS011;11897;45.438;12.128;2022-10-12T06:08:27;3.90;;;1.33;;
23449;SDS011;11897;45.438;12.128;2022-10-12T06:10:54;2.43;;;1.67;;
23449;SDS011;11897;45.438;12.128;2022-10-12T06:13:21;1.67;;;1.40;;
23449;SDS011;11897;45.438;12.128;2022-10-12T06:15:48;1.50;;;1.13;;
23449;SDS011;11897;45.438;12.128;2022-10-12T06:18:16;2.30;;;1.63;;
23449;SDS011;11897;45.438;12.128;2022-10-12T06:20:47;2.53;;;1.33;;
23449;SDS011;11897;45.438;12.128;2022-10-12T06:23:15;2.30;;;1.07;;
23449;SDS011;11897;45.438;12.128;2022-10-12T06:25:42;1.20;;;0.97;;
23449;SDS011;11897;45.438;12.128;2022-10-12T06:28:10;2.03;;;1.27;;
23449;SDS011;11897;45.438;12.128;2022-10-12T06:30:37;1.77;;;1.00;;
23449;SDS011;11897;45.438;12.128;2022-10-12T06:33:03;2.43;;;1.30;;
23449;SDS011;11897;45.438;12.128;2022-10-12T06:35:32;2.07;;;1.30;;
23449;SDS011;11897;45.438;12.128;2022-10-12T06:37:59;2.87;;;1.00;;
23449;SDS011;11897;45.438;12.128;2022-10-12T06:40:26;1.93;;;1.40;;
23449;SDS011;11897;45.438;12.128;2022-10-12T06:42:53;1.73;;;1.10;;
23449;SDS011;11897;45.438;12.128;2022-10-12T06:45:19;1.60;;;0.83;;
23449;SDS011;11897;45.438;12.128;2022-10-12T06:47:46;1.47;;;1.27;;
23449;SDS011;11897;45.438;12.128;2022-10-12T06:50:14;1.93;;;0.90;;
23449;SDS011;11897;45.438;12.128;2022-10-12T06:52:44;3.60;;;1.23;;
23449;SDS011;11897;45.438;12.128;2022-10-12T06:55:12;1.57;;;1.30;;
23449;SDS011;11897;45.438;12.128;2022-10-12T06:57:39;1.83;;;1.17;;
23449;SDS011;11897;45.438;12.128;2022-10-12T07:00:07;1.43;;;0.87;;
23449;SDS011;11897;45.438;12.128;2022-10-12T07:02:34;2.00;;;1.43;;
23449;SDS011;11897;45.438;12.128;2022-10-12T07:05:01;1.67;;;1.00;;
23449;SDS011;11897;45.438;12.128;2022-10-12T07:07:28;3.30;;;1.53;;
23449;SDS011;11897;45.438;12.128;2022-10-12T07:09:56;1.33;;;0.90;;
23449;SDS011;11897;45.438;12.128;2022-10-12T07:12:23;1.00;;;0.93;;
23449;SDS011;11897;45.438;12.128;2022-10-12T07:14:50;1.70;;;0.93;;
23449;SDS011;11897;45.438;12.128;2022-10-12T07:17:19;1.53;;;0.90;;
23449;SDS011;11897;45.438;12.128;2022-10-12T07:19:46;2.50;;;1.20;;
23449;SDS011;11897;45.438;12.128;2022-10-12T07:22:13;1.55;;;1.00;;
23449;SDS011;11897;45.438;12.128;2022-10-12T07:26:43;1.35;;;0.80;;
23449;SDS011;11897;45.438;12.128;2022-10-12T07:29:10;3.15;;;1.10;;
23449;SDS011;11897;45.438;12.128;2022-10-12T07:31:37;1.70;;;0.88;;
23449;SDS011;11897;45.438;12.128;2022-10-12T07:34:03;1.05;;;0.77;;
23449;SDS011;11897;45.438;12.128;2022-10-12T07:36:30;1.88;;;0.90;;
23449;SDS011;11897;45.438;12.128;2022-10-12T07:38:57;1.75;;;1.05;;
23449;SDS011;11897;45.438;12.128;2022-10-12T07:41:23;1.13;;;0.80;;
23449;SDS011;11897;45.438;12.128;2022-10-12T07:43:54;1.38;;;1.02;;
23449;SDS011;11897;45.438;12.128;2022-10-12T07:46:22;1.83;;;1.23;;
23449;SDS011;11897;45.438;12.128;2022-10-12T07:48:49;1.52;;;0.95;;
23449;SDS011;11897;45.438;12.128;2022-10-12T07:51:16;1.87;;;1.20;;
23449;SDS011;11897;45.438;12.128;2022-10-12T07:53:43;0.95;;;0.90;;
23449;SDS011;11897;45.438;12.128;2022-10-12T07:56:10;1.67;;;1.17;;
23449;SDS011;11897;45.438;12.128;2022-10-12T07:58:39;0.77;;;0.60;;
23449;SDS011;11897;45.438;12.128;2022-10-12T08:01:08;2.08;;;1.20;;
23449;SDS011;11897;45.438;12.128;2022-10-12T08:03:35;1.52;;;1.10;;
23449;SDS011;11897;45.438;12.128;2022-10-12T08:06:06;1.35;;;1.25;;
23449;SDS011;11897;45.438;12.128;2022-10-12T08:08:33;1.27;;;1.00;;
23449;SDS011;11897;45.438;12.128;2022-10-12T08:11:00;1.48;;;1.08;;
23449;SDS011;11897;45.438;12.128;2022-10-12T08:13:27;0.93;;;0.73;;
23449;SDS011;11897;45.438;12.128;2022-10-12T08:15:54;1.35;;;1.10;;
23449;SDS011;11897;45.438;12.128;2022-10-12T08:18:22;1.77;;;0.93;;
23449;SDS011;11897;45.438;12.128;2022-10-12T08:20:48;1.60;;;1.00;;
23449;SDS011;11897;45.438;12.128;2022-10-12T08:23:15;1.70;;;0.93;;
23449;SDS011;11897;45.438;12.128;2022-10-12T08:25:49;0.70;;;0.70;;
23449;SDS011;11897;45.438;12.128;2022-10-12T08:28:16;1.15;;;0.90;;
23449;SDS011;11897;45.438;12.128;2022-10-12T08:30:42;1.20;;;0.63;;
23449;SDS011;11897;45.438;12.128;2022-10-12T08:33:10;1.38;;;0.90;;
23449;SDS011;11897;45.438;12.128;2022-10-12T08:35:39;1.30;;;0.80;;
23449;SDS011;11897;45.438;12.128;2022-10-12T08:38:05;2.35;;;0.80;;
23449;SDS011;11897;45.438;12.128;2022-10-12T08:40:33;0.75;;;0.70;;
23449;SDS011;11897;45.438;12.128;2022-10-12T08:43:02;2.25;;;0.65;;
23449;SDS011;11897;45.438;12.128;2022-10-12T08:45:34;0.77;;;0.70;;
23449;SDS011;11897;45.438;12.128;2022-10-12T08:48:05;14.30;;;1.10;;
23449;SDS011;11897;45.438;12.128;2022-10-12T08:50:36;3.08;;;1.00;;
23449;SDS011;11897;45.438;12.128;2022-10-12T08:53:08;0.73;;;0.70;;
23449;SDS011;11897;45.438;12.128;2022-10-12T08:55:39;1.27;;;0.60;;
23449;SDS011;11897;45.438;12.128;2022-10-12T08:58:10;1.50;;;0.80;;
23449;SDS011;11897;45.438;12.128;2022-10-12T09:00:38;0.75;;;0.73;;
23449;SDS011;11897;45.438;12.128;2022-10-12T09:03:07;0.52;;;0.52;;
23449;SDS011;11897;45.438;12.128;2022-10-12T09:05:39;2.05;;;0.93;;
23449;SDS011;11897;45.438;12.128;2022-10-12T09:08:09;3.45;;;1.25;;
23449;SDS011;11897;45.438;12.128;2022-10-12T09:10:42;1.15;;;0.85;;
23449;SDS011;11897;45.438;12.128;2022-10-12T09:13:13;2.28;;;0.88;;
23449;SDS011;11897;45.438;12.128;2022-10-12T09:15:43;1.90;;;1.20;;
23449;SDS011;11897;45.438;12.128;2022-10-12T09:18:14;1.27;;;0.60;;
23449;SDS011;11897;45.438;12.128;2022-10-12T09:20:44;0.60;;;0.57;;
23449;SDS011;11897;45.438;12.128;2022-10-12T09:23:19;1.23;;;0.77;;
23449;SDS011;11897;45.438;12.128;2022-10-12T09:25:47;2.63;;;1.10;;
23449;SDS011;11897;45.438;12.128;2022-10-12T09:28:16;1.02;;;0.63;;
23449;SDS011;11897;45.438;12.128;2022-10-12T09:30:50;3.03;;;0.63;;
23449;SDS011;11897;45.438;12.128;2022-10-12T09:33:22;1.70;;;1.02;;
23449;SDS011;11897;45.438;12.128;2022-10-12T09:35:50;1.98;;;0.50;;
23449;SDS011;11897;45.438;12.128;2022-10-12T09:38:20;0.80;;;0.60;;
23449;SDS011;11897;45.438;12.128;2022-10-12T09:40:48;0.60;;;0.50;;
23449;SDS011;11897;45.438;12.128;2022-10-12T09:43:15;1.42;;;0.88;;
23449;SDS011;11897;45.438;12.128;2022-10-12T09:45:42;0.50;;;0.45;;
23449;SDS011;11897;45.438;12.128;2022-10-12T09:48:14;1.95;;;0.63;;
23449;SDS011;11897;45.438;12.128;2022-10-12T09:50:42;0.98;;;0.55;;
23449;SDS011;11897;45.438;12.128;2022-10-12T09:53:11;4.70;;;1.00;;
23449;SDS011;11897;45.438;12.128;2022-10-12T09:55:40;1.27;;;0.82;;
23449;SDS011;11897;45.438;12.128;2022-10-12T09:58:11;3.92;;;0.65;;
23449;SDS011;11897;45.438;12.128;2022-10-12T10:00:44;1.08;;;0.55;;
23449;SDS011;11897;45.438;12.128;2022-10-12T10:03:21;0.55;;;0.50;;
23449;SDS011;11897;45.438;12.128;2022-10-12T10:05:50;0.63;;;0.50;;
23449;SDS011;11897;45.438;12.128;2022-10-12T10:08:27;0.65;;;0.30;;
23449;SDS011;11897;45.438;12.128;2022-10-12T10:10:56;1.35;;;0.90;;
23449;SDS011;11897;45.438;12.128;2022-10-12T10:13:25;2.13;;;0.63;;
23449;SDS011;11897;45.438;12.128;2022-10-12T10:16:00;0.40;;;0.35;;
23449;SDS011;11897;45.438;12.128;2022-10-12T10:18:28;2.92;;;0.60;;
23449;SDS011;11897;45.438;12.128;2022-10-12T10:20:58;0.85;;;0.82;;
23449;SDS011;11897;45.438;12.128;2022-10-12T10:23:26;0.40;;;0.40;;
23449;SDS011;11897;45.438;12.128;2022-10-12T10:25:56;0.50;;;0.50;;
23449;SDS011;11897;45.438;12.128;2022-10-12T10:28:27;0.63;;;0.57;;
23449;SDS011;11897;45.438;12.128;2022-10-12T10:30:54;0.70;;;0.60;;
23449;SDS011;11897;45.438;12.128;2022-10-12T10:33:21;1.17;;;1.08;;
23449;SDS011;11897;45.438;12.128;2022-10-12T10:35:58;0.73;;;0.73;;
23449;SDS011;11897;45.438;12.128;2022-10-12T10:38:26;1.15;;;0.80;;
23449;SDS011;11897;45.438;12.128;2022-10-12T10:40:54;2.50;;;0.60;;
23449;SDS011;11897;45.438;12.128;2022-10-12T10:43:25;1.35;;;1.17;;
23449;SDS011;11897;45.438;12.128;2022-10-12T10:45:54;0.75;;;0.52;;
23449;SDS011;11897;45.438;12.128;2022-10-12T10:48:23;0.85;;;0.50;;
23449;SDS011;11897;45.438;12.128;2022-10-12T10:50:52;1.40;;;0.70;;
23449;SDS011;11897;45.438;12.128;2022-10-12T10:53:21;1.77;;;0.70;;
23449;SDS011;11897;45.438;12.128;2022-10-12T10:55:49;0.47;;;0.47;;
23449;SDS011;11897;45.438;12.128;2022-10-12T10:58:26;1.08;;;0.80;;
23449;SDS011;11897;45.438;12.128;2022-10-12T11:00:55;0.95;;;0.85;;
23449;SDS011;11897;45.438;12.128;2022-10-12T11:03:24;1.42;;;1.00;;
23449;SDS011;11897;45.438;12.128;2022-10-12T11:05:57;0.55;;;0.40;;
23449;SDS011;11897;45.438;12.128;2022-10-12T11:08:30;0.95;;;0.80;;
23449;SDS011;11897;45.438;12.128;2022-10-12T11:10:58;1.58;;;0.93;;
23449;SDS011;11897;45.438;12.128;2022-10-12T11:13:30;7.68;;;0.73;;
23449;SDS011;11897;45.438;12.128;2022-10-12T11:15:58;2.60;;;0.93;;
23449;SDS011;11897;45.438;12.128;2022-10-12T11:18:29;1.00;;;0.47;;
23449;SDS011;11897;45.438;12.128;2022-10-12T11:20:57;0.52;;;0.47;;
23449;SDS011;11897;45.438;12.128;2022-10-12T11:23:28;0.98;;;0.73;;
23449;SDS011;11897;45.438;12.128;2022-10-12T11:26:08;0.70;;;0.70;;
23449;SDS011;11897;45.438;12.128;2022-10-12T11:28:38;1.27;;;0.50;;
23449;SDS011;11897;45.438;12.128;2022-10-12T11:31:05;1.33;;;0.93;;
23449;SDS011;11897;45.438;12.128;2022-10-12T11:33:37;0.75;;;0.43;;
23449;SDS011;11897;45.438;12.128;2022-10-12T11:36:05;0.80;;;0.70;;
23449;SDS011;11897;45.438;12.128;2022-10-12T11:38:35;0.57;;;0.50;;
23449;SDS011;11897;45.438;12.128;2022-10-12T11:41:06;0.50;;;0.50;;
23449;SDS011;11897;45.438;12.128;2022-10-12T11:43:35;1.40;;;0.82;;
23449;SDS011;11897;45.438;12.128;2022-10-12T11:46:04;0.90;;;0.60;;
23449;SDS011;11897;45.438;12.128;2022-10-12T11:48:34;1.38;;;0.70;;
23449;SDS011;11897;45.438;12.128;2022-10-12T11:51:02;0.93;;;0.90;;
23449;SDS011;11897;45.438;12.128;2022-10-12T11:53:30;1.85;;;0.60;;
23449;SDS011;11897;45.438;12.128;2022-10-12T11:56:03;0.70;;;0.50;;
23449;SDS011;11897;45.438;12.128;2022-10-12T11:58:34;2.67;;;0.50;;
23449;SDS011;11897;45.438;12.128;2022-10-12T12:01:07;1.85;;;1.27;;
23449;SDS011;11897;45.438;12.128;2022-10-12T12:03:39;2.35;;;1.30;;
23449;SDS011;11897;45.438;12.128;2022-10-12T12:06:41;0.63;;;0.35;;
23449;SDS011;11897;45.438;12.128;2022-10-12T12:09:18;0.77;;;0.68;;
23449;SDS011;11897;45.438;12.128;2022-10-12T12:11:45;0.93;;;0.60;;
23449;SDS011;11897;45.438;12.128;2022-10-12T12:17:12;2.22;;;0.75;;
23449;SDS011;11897;45.438;12.128;2022-10-12T12:19:39;0.47;;;0.47;;
23449;SDS011;11897;45.438;12.128;2022-10-12T12:22:17;3.60;;;1.15;;
23449;SDS011;11897;45.438;12.128;2022-10-12T12:24:51;1.80;;;0.75;;
23449;SDS011;11897;45.438;12.128;2022-10-12T12:27:19;1.27;;;0.88;;
23449;SDS011;11897;45.438;12.128;2022-10-12T12:29:48;1.20;;;0.90;;
23449;SDS011;11897;45.438;12.128;2022-10-12T12:32:16;0.55;;;0.52;;
23449;SDS011;11897;45.438;12.128;2022-10-12T12:34:46;0.60;;;0.60;;
23449;SDS011;11897;45.438;12.128;2022-10-12T12:37:17;1.30;;;0.85;;
23449;SDS011;11897;45.438;12.128;2022-10-12T12:39:45;1.48;;;0.50;;
23449;SDS011;11897;45.438;12.128;2022-10-12T12:42:19;0.85;;;0.80;;
23449;SDS011;11897;45.438;12.128;2022-10-12T12:44:46;1.27;;;1.05;;
23449;SDS011;11897;45.438;12.128;2022-10-12T12:47:14;0.82;;;0.70;;
23449;SDS011;11897;45.438;12.128;2022-10-12T12:49:43;2.88;;;0.98;;
23449;SDS011;11897;45.438;12.128;2022-10-12T12:52:11;0.95;;;0.60;;
23449;SDS011;11897;45.438;12.128;2022-10-12T12:54:40;1.50;;;1.02;;
23449;SDS011;11897;45.438;12.128;2022-10-12T12:57:13;0.70;;;0.40;;
23449;SDS011;11897;45.438;12.128;2022-10-12T13:02:41;1.48;;;1.00;;
23449;SDS011;11897;45.438;12.128;2022-10-12T13:08:12;2.30;;;1.23;;
23449;SDS011;11897;45.438;12.128;2022-10-12T13:10:42;1.63;;;1.13;;
23449;SDS011;11897;45.438;12.128;2022-10-12T13:13:26;1.25;;;1.00;;
23449;SDS011;11897;45.438;12.128;2022-10-12T13:16:00;0.52;;;0.50;;
23449;SDS011;11897;45.438;12.128;2022-10-12T13:18:37;3.30;;;1.05;;
23449;SDS011;11897;45.438;12.128;2022-10-12T13:21:08;0.98;;;0.65;;
23449;SDS011;11897;45.438;12.128;2022-10-12T13:23:39;1.15;;;0.95;;
23449;SDS011;11897;45.438;12.128;2022-10-12T13:26:07;1.10;;;0.88;;
23449;SDS011;11897;45.438;12.128;2022-10-12T13:28:36;7.32;;;1.08;;
23449;SDS011;11897;45.438;12.128;2022-10-12T13:31:10;2.67;;;1.00;;
23449;SDS011;11897;45.438;12.128;2022-10-12T13:33:43;1.88;;;0.98;;
23449;SDS011;11897;45.438;12.128;2022-10-12T13:36:11;1.45;;;0.80;;
23449;SDS011;11897;45.438;12.128;2022-10-12T13:38:43;0.75;;;0.38;;
23449;SDS011;11897;45.438;12.128;2022-10-12T13:41:11;0.90;;;0.50;;
23449;SDS011;11897;45.438;12.128;2022-10-12T13:43:41;1.90;;;1.00;;
23449;SDS011;11897;45.438;12.128;2022-10-12T13:46:09;0.52;;;0.50;;
23449;SDS011;11897;45.438;12.128;2022-10-12T13:48:36;0.47;;;0.47;;
23449;SDS011;11897;45.438;12.128;2022-10-12T13:51:16;4.60;;;0.90;;
23449;SDS011;11897;45.438;12.128;2022-10-12T13:53:46;0.82;;;0.77;;
23449;SDS011;11897;45.438;12.128;2022-10-12T13:56:13;2.60;;;1.10;;
23449;SDS011;11897;45.438;12.128;2022-10-12T13:58:41;2.10;;;0.70;;
23449;SDS011;11897;45.438;12.128;2022-10-12T14:01:08;0.50;;;0.50;;
23449;SDS011;11897;45.438;12.128;2022-10-12T14:03:36;1.60;;;0.88;;
23449;SDS011;11897;45.438;12.128;2022-10-12T14:06:04;5.07;;;0.85;;
23449;SDS011;11897;45.438;12.128;2022-10-12T14:08:32;1.00;;;0.90;;
23449;SDS011;11897;45.438;12.128;2022-10-12T14:11:01;1.45;;;0.80;;
23449;SDS011;11897;45.438;12.128;2022-10-12T14:13:30;3.35;;;1.08;;
23449;SDS011;11897;45.438;12.128;2022-10-12T14:15:57;1.48;;;0.77;;
23449;SDS011;11897;45.438;12.128;2022-10-12T14:18:32;0.95;;;0.50;;
23449;SDS011;11897;45.438;12.128;2022-10-12T14:21:03;1.20;;;0.77;;
23449;SDS011;11897;45.438;12.128;2022-10-12T14:23:30;0.88;;;0.73;;
23449;SDS011;11897;45.438;12.128;2022-10-12T14:25:57;1.08;;;0.93;;
23449;SDS011;11897;45.438;12.128;2022-10-12T14:28:27;0.93;;;0.60;;
23449;SDS011;11897;45.438;12.128;2022-10-12T14:30:54;1.55;;;0.75;;
23449;SDS011;11897;45.438;12.128;2022-10-12T14:33:22;0.93;;;0.82;;
23449;SDS011;11897;45.438;12.128;2022-10-12T14:35:59;1.00;;;0.80;;
23449;SDS011;11897;45.438;12.128;2022-10-12T14:38:37;0.52;;;0.52;;
23449;SDS011;11897;45.438;12.128;2022-10-12T14:44:02;1.20;;;0.73;;
23449;SDS011;11897;45.438;12.128;2022-10-12T14:46:29;0.63;;;0.57;;
23449;SDS011;11897;45.438;12.128;2022-10-12T14:48:56;2.42;;;0.80;;
23449;SDS011;11897;45.438;12.128;2022-10-12T14:51:22;1.20;;;0.77;;
23449;SDS011;11897;45.438;12.128;2022-10-12T14:53:56;0.80;;;0.70;;
23449;SDS011;11897;45.438;12.128;2022-10-12T14:56:23;0.30;;;0.30;;